Time;durP1;ratioP1;P1;durP2;ratioP2;P2;SDS_P1;SDS_P2;PMS_P1;PMS_P2;Temp;Humidity;BMP_temperature;BMP_pressure;BME280_temperature;BME280_humidity;BME280_pressure;Samples;Min_cycle;Max_cycle;Signal;HPM_P1;HPM_P2
2022/05/12 00:00:27;;;;;;;13.03;5.20;;;;;;;16.72;60.00;100337.84;5080258;28;20191;-75
2022/05/12 00:02:53;;;;;;;9.70;5.40;;;;;;;16.61;60.32;100337.22;5080468;28;20253;-74
2022/05/12 00:05:19;;;;;;;9.60;5.00;;;;;;;16.67;60.60;100335.31;5080144;28;20485;-72
2022/05/12 00:07:44;;;;;;;12.50;5.43;;;;;;;15.86;62.34;100331.72;5078714;28;20169;-75
2022/05/12 00:10:13;;;;;;;10.33;6.10;;;;;;;16.14;62.30;100327.66;5080598;28;20611;-74
2022/05/12 00:12:39;;;;;;;12.97;5.83;;;;;;;15.89;62.75;100315.91;5080200;28;20187;-74
2022/05/12 00:15:07;;;;;;;14.60;5.90;;;;;;;16.36;62.14;100321.97;5080232;28;20442;-73
2022/05/12 00:17:32;;;;;;;12.17;5.70;;;;;;;15.89;63.42;100313.28;5080554;28;20176;-72
2022/05/12 00:19:57;;;;;;;9.60;5.67;;;;;;;16.35;62.26;100309.72;5079992;28;20631;-72
2022/05/12 00:22:23;;;;;;;8.97;5.37;;;;;;;16.16;63.57;100312.72;5079819;28;20222;-74
2022/05/12 00:24:48;;;;;;;12.77;6.60;;;;;;;15.83;65.43;100314.25;5080470;28;20185;-74
2022/05/12 00:27:13;;;;;;;9.20;5.47;;;;;;;15.54;66.93;100312.13;5080010;28;20238;-74
2022/05/12 00:29:39;;;;;;;8.10;5.53;;;;;;;15.62;67.15;100302.34;5079866;28;20437;-74
2022/05/12 00:32:04;;;;;;;10.97;6.23;;;;;;;15.48;68.18;100290.31;5080149;28;20434;-74
2022/05/12 00:34:30;;;;;;;9.57;5.27;;;;;;;15.48;68.61;100298.19;5079663;28;20212;-73
2022/05/12 00:36:55;;;;;;;11.07;5.57;;;;;;;15.56;67.98;100295.44;5079593;28;20633;-73
2022/05/12 00:39:20;;;;;;;10.57;6.53;;;;;;;16.06;67.21;100291.88;5080270;28;20621;-75
2022/05/12 00:41:45;;;;;;;8.03;5.70;;;;;;;15.67;67.39;100290.00;5079611;28;20257;-73
2022/05/12 00:44:13;;;;;;;12.60;8.77;;;;;;;15.76;67.83;100295.09;5079466;28;20169;-73
2022/05/12 00:46:40;;;;;;;11.80;5.97;;;;;;;16.13;66.33;100299.63;5079552;28;20224;-74
2022/05/12 00:49:12;;;;;;;7.97;5.77;;;;;;;16.15;65.82;100305.72;5079577;28;20416;-74
2022/05/12 00:51:46;;;;;;;9.77;5.40;;;;;;;16.07;65.60;100310.25;5078781;28;20653;-73
2022/05/12 00:54:18;;;;;;;12.33;7.37;;;;;;;16.47;65.42;100304.19;5078518;28;20433;-73
2022/05/12 00:56:44;;;;;;;8.80;5.90;;;;;;;16.15;65.46;100310.13;5079283;28;20480;-73
2022/05/12 00:59:12;;;;;;;8.50;6.20;;;;;;;16.07;65.83;100314.66;5079397;28;20840;-73
2022/05/12 01:01:38;;;;;;;9.40;6.50;;;;;;;15.52;67.39;100325.28;5078407;28;20435;-72
2022/05/12 01:04:05;;;;;;;11.20;6.50;;;;;;;15.89;66.22;100310.63;5079514;28;20706;-74
2022/05/12 01:06:30;;;;;;;10.80;5.70;;;;;;;15.57;66.78;100317.31;5079120;28;20442;-74
2022/05/12 01:08:56;;;;;;;12.50;6.53;;;;;;;15.69;67.60;100318.88;5079062;28;20423;-74
2022/05/12 01:11:21;;;;;;;12.17;6.70;;;;;;;15.38;67.91;100324.66;5079443;28;20184;-74
2022/05/12 01:13:51;;;;;;;9.00;6.27;;;;;;;15.57;67.44;100319.94;5078693;28;20295;-74
2022/05/12 01:16:47;;;;;;;10.57;6.40;;;;;;;15.72;67.07;100322.31;5077999;28;20208;-74
2022/05/12 01:19:24;;;;;;;11.37;6.70;;;;;;;15.63;68.27;100322.47;5078380;28;20755;-74
2022/05/12 01:21:51;;;;;;;12.20;6.57;;;;;;;15.72;67.58;100330.19;5078843;28;20426;-74
2022/05/12 01:24:18;;;;;;;13.60;8.20;;;;;;;15.65;67.99;100324.19;5078556;28;20798;-73
2022/05/12 01:26:44;;;;;;;10.50;6.67;;;;;;;15.90;66.83;100330.75;5078657;28;20443;-74
2022/05/12 01:29:10;;;;;;;9.73;6.80;;;;;;;15.77;67.86;100328.31;5079247;28;20390;-74
2022/05/12 01:31:36;;;;;;;9.40;6.53;;;;;;;15.38;68.57;100328.13;5078511;28;20284;-74
2022/05/12 01:34:05;;;;;;;10.17;5.97;;;;;;;15.47;68.41;100332.38;5062178;28;20194;-74
2022/05/12 01:36:30;;;;;;;13.97;6.60;;;;;;;15.43;69.19;100339.44;5078779;28;20411;-74
2022/05/12 01:38:56;;;;;;;9.30;6.87;;;;;;;15.62;69.15;100332.09;5078551;28;20429;-75
2022/05/12 01:41:21;;;;;;;10.73;7.07;;;;;;;15.55;69.09;100334.88;5082358;28;20180;-73
2022/05/12 01:43:47;;;;;;;9.77;7.03;;;;;;;15.24;69.88;100333.63;5079674;28;20558;-74
2022/05/12 01:46:12;;;;;;;11.60;8.07;;;;;;;15.09;70.59;100336.50;5078096;28;20225;-72
2022/05/12 01:48:38;;;;;;;6.87;5.40;;;;;;;15.03;70.48;100341.84;5060950;28;20184;-72
2022/05/12 01:51:05;;;;;;;7.73;5.60;;;;;;;15.43;69.71;100338.59;5078586;28;20219;-73
2022/05/12 01:53:30;;;;;;;7.73;5.80;;;;;;;15.13;69.95;100351.31;5077449;28;20251;-74
2022/05/12 01:55:56;;;;;;;8.20;6.10;;;;;;;14.90;70.23;100360.41;5077767;28;20533;-74
2022/05/12 01:58:22;;;;;;;9.90;5.50;;;;;;;14.75;70.16;100358.00;5078383;28;20453;-73
2022/05/12 02:00:47;;;;;;;6.57;5.20;;;;;;;14.93;68.90;100349.84;5077999;28;20173;-74
2022/05/12 02:03:13;;;;;;;4.97;4.47;;;;;;;15.26;68.04;100362.47;5077812;28;20208;-75
2022/05/12 02:05:39;;;;;;;6.43;5.00;;;;;;;15.15;67.94;100358.28;5078289;28;20201;-74
2022/05/12 02:08:05;;;;;;;8.00;4.90;;;;;;;15.58;66.77;100361.09;5078094;28;20181;-74
2022/05/12 02:10:37;;;;;;;12.07;4.73;;;;;;;15.09;67.43;100365.38;5077629;28;20667;-74
2022/05/12 02:13:03;;;;;;;6.80;4.53;;;;;;;15.16;67.98;100360.00;5078229;28;20413;-73
2022/05/12 02:15:28;;;;;;;4.97;4.50;;;;;;;14.92;69.04;100368.25;5077075;28;20868;-73
2022/05/12 02:17:54;;;;;;;5.80;5.20;;;;;;;15.09;69.44;100368.88;5077951;28;20683;-73
2022/05/12 02:20:21;;;;;;;5.20;4.70;;;;;;;15.48;68.74;100382.25;5078266;28;20187;-73
2022/05/12 02:22:46;;;;;;;7.50;5.83;;;;;;;14.53;71.04;100386.22;5077934;28;20188;-73
2022/05/12 02:25:12;;;;;;;8.13;5.30;;;;;;;14.63;71.40;100401.84;5077900;28;20401;-73
2022/05/12 02:27:42;;;;;;;6.60;5.40;;;;;;;14.58;71.51;100421.13;5078013;28;20176;-71
2022/05/12 02:30:09;;;;;;;6.77;5.23;;;;;;;14.41;72.33;100432.69;5078361;28;20172;-72
2022/05/12 02:32:34;;;;;;;5.73;5.23;;;;;;;14.45;72.69;100446.63;5080283;28;20698;-73
2022/05/12 02:34:59;;;;;;;6.43;5.07;;;;;;;14.27;73.84;100458.19;5078863;28;20429;-73
2022/05/12 02:37:25;;;;;;;7.40;5.63;;;;;;;14.28;73.24;100465.19;5077700;28;20176;-74
2022/05/12 02:39:50;;;;;;;7.00;5.33;;;;;;;14.36;73.21;100484.31;5077488;28;20184;-74
2022/05/12 02:42:16;;;;;;;6.63;5.43;;;;;;;14.38;72.64;100497.41;5078065;28;20263;-74
2022/05/12 02:44:41;;;;;;;5.80;4.80;;;;;;;13.93;72.25;100500.44;5077614;28;20200;-73
2022/05/12 02:47:07;;;;;;;5.83;4.53;;;;;;;14.13;71.93;100516.88;5077469;28;20261;-74
2022/05/12 02:49:33;;;;;;;5.13;4.63;;;;;;;14.56;70.16;100523.47;5077848;28;20177;-74
2022/05/12 02:51:58;;;;;;;6.40;3.93;;;;;;;14.26;70.69;100541.25;5077298;28;20426;-73
2022/05/12 02:54:23;;;;;;;4.83;3.63;;;;;;;13.66;71.09;100543.44;5078115;28;20212;-73
2022/05/12 02:56:52;;;;;;;3.70;3.23;;;;;;;13.97;69.54;100559.81;5079238;28;20180;-74
2022/05/12 02:59:17;;;;;;;4.30;3.40;;;;;;;13.88;70.07;100578.22;5077619;28;20184;-73
2022/05/12 03:01:42;;;;;;;4.13;3.17;;;;;;;13.91;70.15;100578.19;5076643;28;20397;-72
2022/05/12 03:04:08;;;;;;;6.87;3.00;;;;;;;13.90;69.81;100594.81;5077549;28;20542;-75
2022/05/12 03:06:34;;;;;;;3.70;3.20;;;;;;;13.92;69.91;100601.78;5077389;28;20176;-75
2022/05/12 03:08:59;;;;;;;5.10;3.33;;;;;;;13.98;70.07;100609.59;5076389;28;20397;-74
2022/05/12 03:11:25;;;;;;;5.40;3.70;;;;;;;14.09;69.55;100617.38;5077686;28;20560;-73
2022/05/12 03:13:51;;;;;;;3.93;3.63;;;;;;;14.09;70.18;100616.53;5076795;28;20204;-74
2022/05/12 03:16:18;;;;;;;4.80;3.67;;;;;;;13.73;71.26;100628.97;5077099;28;20180;-74
2022/05/12 03:18:46;;;;;;;4.60;3.77;;;;;;;14.03;70.67;100635.78;5077598;28;20172;-72
2022/05/12 03:21:12;;;;;;;4.10;3.70;;;;;;;13.89;69.73;100645.47;5077109;28;20882;-73
2022/05/12 03:23:37;;;;;;;4.37;3.70;;;;;;;13.98;69.82;100654.16;5076936;28;20397;-71
2022/05/12 03:26:03;;;;;;;4.83;3.83;;;;;;;14.12;69.17;100659.31;5077486;28;20181;-71
2022/05/12 03:28:28;;;;;;;4.77;3.90;;;;;;;14.05;68.93;100662.84;5077052;28;20181;-72
2022/05/12 03:30:53;;;;;;;5.43;3.70;;;;;;;13.73;69.72;100676.97;5077120;28;20184;-72
2022/05/12 03:33:19;;;;;;;4.53;3.70;;;;;;;13.92;69.30;100677.78;5077335;28;20204;-72
2022/05/12 03:35:45;;;;;;;4.03;3.50;;;;;;;13.82;69.52;100684.81;5076995;28;20299;-73
2022/05/12 03:38:11;;;;;;;4.50;3.67;;;;;;;13.88;69.57;100689.19;5076965;28;20177;-73
2022/05/12 03:40:36;;;;;;;3.70;3.40;;;;;;;13.84;69.32;100703.13;5082147;28;20481;-73
2022/05/12 03:43:01;;;;;;;3.40;3.03;;;;;;;13.50;70.19;100705.03;5079413;28;20530;-73
2022/05/12 03:45:29;;;;;;;5.03;3.20;;;;;;;13.63;70.02;100704.97;5080837;28;20177;-73
2022/05/12 03:47:55;;;;;;;5.53;3.50;;;;;;;13.62;70.08;100718.09;5080468;28;20235;-73
2022/05/12 03:50:23;;;;;;;9.93;3.70;;;;;;;13.86;69.49;100722.38;5079834;28;20710;-73
2022/05/12 03:52:49;;;;;;;3.60;3.30;;;;;;;13.81;69.07;100727.63;5063304;28;20488;-73
2022/05/12 03:55:16;;;;;;;5.80;3.30;;;;;;;14.01;68.55;100724.03;5080524;28;20910;-72
2022/05/12 03:57:42;;;;;;;6.77;3.90;;;;;;;13.78;68.63;100738.09;5080571;28;20520;-73
2022/05/12 04:00:11;;;;;;;4.60;3.60;;;;;;;13.68;69.11;100739.03;5080818;28;20418;-72
2022/05/12 04:02:36;;;;;;;6.10;3.77;;;;;;;14.12;67.51;100758.94;5079423;28;20423;-71
2022/05/12 04:05:02;;;;;;;5.60;3.80;;;;;;;13.39;69.57;100755.66;5080263;28;20442;-73
2022/05/12 04:07:27;;;;;;;4.60;3.67;;;;;;;13.56;69.33;100767.88;5080013;28;20187;-73
2022/05/12 04:09:52;;;;;;;4.43;3.97;;;;;;;13.83;68.47;100766.94;5080279;28;20455;-72
2022/05/12 04:12:18;;;;;;;10.37;4.27;;;;;;;13.87;67.92;100778.25;5080090;28;20260;-72
2022/05/12 04:14:44;;;;;;;6.80;4.33;;;;;;;13.92;68.14;100785.25;5080377;28;20200;-72
2022/05/12 04:17:13;;;;;;;6.40;4.43;;;;;;;13.54;68.36;100793.19;5080149;28;20180;-72
2022/05/12 04:19:44;;;;;;;6.73;4.40;;;;;;;13.94;67.31;100795.72;5079547;28;20510;-74
2022/05/12 04:22:10;;;;;;;5.60;4.00;;;;;;;13.74;67.82;100801.88;5079059;28;20458;-73
2022/05/12 04:24:35;;;;;;;4.97;4.20;;;;;;;13.39;68.58;100807.19;5079999;28;20394;-74
2022/05/12 04:27:01;;;;;;;8.53;4.47;;;;;;;13.08;68.55;100825.47;5080158;28;20183;-73
2022/05/12 04:29:26;;;;;;;7.17;4.63;;;;;;;13.45;67.58;100825.53;5079225;28;20200;-73
2022/05/12 04:31:51;;;;;;;6.67;4.40;;;;;;;13.35;67.87;100821.97;5079922;28;20527;-74
2022/05/12 04:37:01;;;;;;;7.60;4.80;;;;;;;14.23;65.91;100847.16;5079588;28;20237;-74
2022/05/12 04:39:26;;;;;;;5.17;4.70;;;;;;;13.87;66.19;100851.63;5078999;28;20700;-72
2022/05/12 04:41:51;;;;;;;6.27;5.43;;;;;;;13.74;66.87;100854.28;5074460;28;20228;-72
2022/05/12 04:44:17;;;;;;;6.60;4.27;;;;;;;13.81;67.08;100856.03;5079543;28;20188;-72
2022/05/12 04:46:43;;;;;;;7.13;4.87;;;;;;;13.80;67.57;100866.50;5077941;28;20307;-72
2022/05/12 04:49:10;;;;;;;14.60;5.70;;;;;;;13.53;67.77;100867.41;5073649;28;20188;-73
2022/05/12 04:51:37;;;;;;;12.30;5.27;;;;;;;13.81;67.64;100874.38;5077917;28;20161;-71
2022/05/12 04:54:02;;;;;;;6.97;5.10;;;;;;;13.52;67.29;100884.88;5078189;28;20394;-72
2022/05/12 04:56:29;;;;;;;8.47;5.00;;;;;;;13.39;67.16;100883.97;5074817;28;20428;-70
2022/05/12 04:58:55;;;;;;;10.83;4.90;;;;;;;13.73;65.83;100886.59;5079752;28;20416;-72
2022/05/12 05:01:20;;;;;;;9.90;5.10;;;;;;;14.15;64.21;100890.03;5065966;28;20820;-71
2022/05/12 05:03:45;;;;;;;7.10;4.90;;;;;;;15.24;60.26;100879.88;5059128;28;20399;-73
2022/05/12 05:06:11;;;;;;;6.40;5.30;;;;;;;16.87;55.14;100891.34;5065499;28;20551;-71
2022/05/12 05:08:37;;;;;;;6.80;4.50;;;;;;;15.39;58.25;100906.91;5062013;28;20229;-72
2022/05/12 05:11:04;;;;;;;9.40;4.60;;;;;;;16.04;58.63;100906.38;5065630;28;20200;-73
2022/05/12 05:13:30;;;;;;;5.57;4.50;;;;;;;15.77;59.16;100910.97;5076215;28;20299;-73
2022/05/12 05:15:55;;;;;;;5.43;4.27;;;;;;;16.31;57.45;100920.97;5075232;28;20461;-72
2022/05/12 05:18:22;;;;;;;5.23;4.73;;;;;;;15.78;57.98;100928.50;5068518;28;20729;-73
2022/05/12 05:20:48;;;;;;;7.60;4.57;;;;;;;15.86;58.64;100921.44;5059410;28;20247;-74
2022/05/12 05:23:15;;;;;;;6.07;4.30;;;;;;;15.30;59.87;100931.47;5059967;28;20420;-72
2022/05/12 05:25:41;;;;;;;7.10;5.07;;;;;;;15.04;60.71;100936.91;5079099;28;20180;-72
2022/05/12 05:28:08;;;;;;;7.23;4.77;;;;;;;14.75;61.78;100933.56;5079079;28;20704;-72
2022/05/12 05:30:34;;;;;;;9.40;5.77;;;;;;;15.64;59.76;100941.75;5081885;28;20817;-72
2022/05/12 05:32:59;;;;;;;8.23;5.53;;;;;;;16.05;59.11;100937.03;5080285;28;20407;-72
2022/05/12 05:35:24;;;;;;;7.30;4.80;;;;;;;16.92;55.79;100936.94;5079319;28;20674;-72
2022/05/12 05:37:51;;;;;;;7.60;4.70;;;;;;;18.01;52.25;100942.31;5077969;28;20181;-72
2022/05/12 05:40:19;;;;;;;6.17;4.00;;;;;;;17.98;52.01;100943.22;5085614;28;20201;-72
2022/05/12 05:42:46;;;;;;;5.80;4.60;;;;;;;16.46;56.09;100957.63;5080780;28;20493;-72
2022/05/12 05:45:15;;;;;;;9.10;4.57;;;;;;;19.51;49.09;100934.75;5069609;28;20523;-71
2022/05/12 05:47:45;;;;;;;9.67;4.83;;;;;;;17.72;52.84;100948.03;5076491;28;20864;-71
2022/05/12 05:50:12;;;;;;;8.50;5.50;;;;;;;17.65;53.64;100961.31;5077631;28;20445;-72
2022/05/12 05:55:21;;;;;;;6.80;4.90;;;;;;;18.15;51.21;100964.00;5073841;28;20502;-73
2022/05/12 05:57:47;;;;;;;8.13;4.00;;;;;;;18.00;52.04;100978.34;5074269;28;20852;-73
2022/05/12 06:00:14;;;;;;;6.63;4.33;;;;;;;17.95;52.41;100984.59;5077965;28;20211;-71
2022/05/12 06:02:39;;;;;;;8.80;4.30;;;;;;;19.01;49.43;100974.66;5078839;28;20423;-73
2022/05/12 06:05:05;;;;;;;6.43;4.13;;;;;;;19.07;49.66;100978.94;5078317;28;20415;-75
2022/05/12 06:07:31;;;;;;;6.53;4.30;;;;;;;17.49;52.71;100997.63;5078362;28;20554;-73
2022/05/12 06:09:57;;;;;;;5.37;3.93;;;;;;;15.89;57.08;100999.41;5078992;28;20414;-74
2022/05/12 06:12:23;;;;;;;10.10;5.93;;;;;;;16.88;54.68;101011.56;5078322;28;20439;-75
2022/05/12 06:14:48;;;;;;;8.20;4.80;;;;;;;15.86;57.88;101015.19;5078134;28;20525;-74
2022/05/12 06:17:14;;;;;;;7.67;4.90;;;;;;;16.02;57.48;101026.47;5078751;28;20180;-74
2022/05/12 06:19:39;;;;;;;12.20;5.53;;;;;;;17.35;54.14;101018.00;5078286;28;20173;-76
2022/05/12 06:22:04;;;;;;;7.97;5.00;;;;;;;16.73;55.85;101033.69;5078149;28;20180;-74
2022/05/12 06:24:30;;;;;;;9.80;4.70;;;;;;;16.87;55.61;101038.78;5078995;28;20225;-74
2022/05/12 06:26:55;;;;;;;6.43;4.53;;;;;;;18.91;50.44;101039.16;5078305;28;20179;-75
2022/05/12 06:29:20;;;;;;;5.23;4.20;;;;;;;17.58;52.22;101037.91;5078501;28;20196;-73
2022/05/12 06:31:47;;;;;;;8.97;4.77;;;;;;;16.33;55.48;101048.09;5078615;28;20169;-73
2022/05/12 06:34:13;;;;;;;7.87;4.40;;;;;;;18.02;51.84;101049.53;5078303;28;20224;-73
2022/05/12 06:36:38;;;;;;;4.37;3.93;;;;;;;19.09;49.01;101051.16;5078288;28;20446;-72
2022/05/12 06:39:03;;;;;;;6.60;4.07;;;;;;;17.75;51.40;101061.38;5078732;28;20549;-73
2022/05/12 06:41:30;;;;;;;7.73;3.97;;;;;;;18.75;50.16;101064.09;5078296;28;20196;-73
2022/05/12 06:43:55;;;;;;;6.23;4.00;;;;;;;17.68;51.52;101071.13;5077474;28;20187;-76
2022/05/12 06:46:21;;;;;;;7.33;4.20;;;;;;;18.62;49.48;101072.28;5078059;28;20864;-74
2022/05/12 06:48:47;;;;;;;5.47;3.60;;;;;;;18.55;49.44;101078.56;5078584;28;20207;-70
2022/05/12 06:51:14;;;;;;;6.20;4.07;;;;;;;18.99;48.41;101078.66;5077613;28;20423;-72
2022/05/12 06:53:39;;;;;;;5.80;4.00;;;;;;;17.58;51.35;101085.38;5078126;28;20568;-72
2022/05/12 06:56:05;;;;;;;6.27;4.23;;;;;;;20.14;45.49;101080.50;5077874;28;20884;-72
2022/05/12 06:58:30;;;;;;;8.70;4.13;;;;;;;20.36;45.05;101079.97;5078349;28;20184;-72
2022/05/12 07:00:56;;;;;;;6.17;3.77;;;;;;;21.45;42.73;101078.75;5077843;28;20222;-73
2022/05/12 07:03:22;;;;;;;4.93;3.60;;;;;;;20.52;44.06;101088.41;5077814;28;20223;-73
2022/05/12 07:05:47;;;;;;;5.37;3.60;;;;;;;19.37;47.32;101090.19;5077592;28;20727;-73
2022/05/12 07:08:13;;;;;;;6.17;4.03;;;;;;;19.67;45.87;101090.41;5077816;28;20592;-70
2022/05/12 07:10:39;;;;;;;5.37;3.93;;;;;;;20.22;44.35;101092.72;5077628;28;20180;-73
2022/05/12 07:13:04;;;;;;;5.47;3.43;;;;;;;21.85;41.10;101097.88;5078422;28;20410;-71
2022/05/12 07:15:30;;;;;;;6.00;3.80;;;;;;;21.32;42.17;101106.53;5077558;28;20211;-70
2022/05/12 07:17:55;;;;;;;5.10;3.47;;;;;;;19.51;44.93;101117.22;5079024;28;20271;-73
2022/05/12 07:28:36;;;;;;;7.43;4.53;;;;;;;20.46;43.74;101137.09;5081010;28;20414;-73
2022/05/12 07:31:01;;;;;;;6.80;5.37;;;;;;;19.99;45.01;101139.13;5081595;28;20500;-74
2022/05/12 07:33:31;;;;;;;5.37;4.83;;;;;;;19.81;45.65;101145.72;5081227;28;20407;-74
2022/05/12 07:36:01;;;;;;;5.57;5.07;;;;;;;19.50;46.62;101152.50;5080504;28;20201;-75
2022/05/12 07:38:27;;;;;;;5.90;5.40;;;;;;;18.44;48.41;101151.78;5081792;28;20414;-74
2022/05/12 07:40:53;;;;;;;6.17;5.43;;;;;;;18.84;47.36;101159.88;5083327;28;20443;-74
2022/05/12 07:43:19;;;;;;;6.50;5.90;;;;;;;20.42;44.80;101159.28;5081381;28;20859;-74
2022/05/12 07:45:44;;;;;;;6.17;5.67;;;;;;;19.44;46.34;101167.59;5081103;28;20176;-76
2022/05/12 07:48:11;;;;;;;5.83;5.33;;;;;;;19.41;45.94;101165.03;5080117;28;20220;-75
2022/05/12 07:50:36;;;;;;;5.70;5.10;;;;;;;22.77;39.55;101143.56;5081646;28;20169;-73
2022/05/12 07:53:02;;;;;;;5.80;4.80;;;;;;;21.02;42.22;101155.06;5081140;28;20422;-73
2022/05/12 07:55:27;;;;;;;4.93;4.53;;;;;;;19.89;44.61;101169.34;5081164;28;20627;-74
2022/05/12 07:57:53;;;;;;;4.60;4.30;;;;;;;20.03;43.67;101169.91;5081819;28;20165;-74
2022/05/12 08:00:18;;;;;;;5.43;4.40;;;;;;;19.79;45.09;101180.09;5080727;28;20185;-73
2022/05/12 08:02:44;;;;;;;5.90;4.60;;;;;;;19.84;45.03;101180.88;5080737;28;20232;-73
2022/05/12 08:05:09;;;;;;;8.80;4.77;;;;;;;20.28;43.14;101182.56;5081243;28;20444;-73
2022/05/12 08:07:35;;;;;;;4.83;4.40;;;;;;;21.33;42.24;101186.03;5080666;28;20415;-74
2022/05/12 08:10:01;;;;;;;4.63;4.23;;;;;;;20.71;42.82;101184.19;5080410;28;20165;-76
2022/05/12 08:12:27;;;;;;;5.13;4.40;;;;;;;21.40;41.34;101186.75;5080949;28;20435;-72
2022/05/12 08:14:53;;;;;;;4.70;4.10;;;;;;;22.82;38.09;101189.47;5080634;28;20249;-72
2022/05/12 08:17:18;;;;;;;5.10;3.97;;;;;;;21.56;40.94;101195.16;5080368;28;20809;-72
2022/05/12 08:19:44;;;;;;;4.93;4.10;;;;;;;21.98;39.88;101191.28;5080960;28;20169;-72
2022/05/12 08:22:09;;;;;;;5.67;3.90;;;;;;;23.50;37.22;101190.63;5080532;28;20175;-72
2022/05/12 08:24:35;;;;;;;6.30;3.87;;;;;;;22.25;39.27;101194.00;5079790;28;20176;-72
2022/05/12 08:27:01;;;;;;;5.60;3.93;;;;;;;23.68;37.39;101193.53;5081219;28;20166;-74
2022/05/12 08:29:26;;;;;;;4.90;3.70;;;;;;;25.05;35.51;101195.13;5079912;28;20264;-74
2022/05/12 08:31:51;;;;;;;3.80;3.50;;;;;;;23.76;35.69;101202.09;5080061;28;20187;-73
2022/05/12 08:34:16;;;;;;;4.23;3.83;;;;;;;22.40;38.04;101220.09;5081103;28;20193;-73
2022/05/12 08:36:42;;;;;;;4.57;3.73;;;;;;;23.18;36.27;101215.75;5080095;28;20215;-75
2022/05/12 08:39:07;;;;;;;6.20;3.97;;;;;;;22.79;37.19;101211.72;5080292;28;20169;-75
2022/05/12 08:41:57;;;;;;;3.50;3.20;;;;;;;23.77;34.94;101217.09;5080639;28;20200;-76
2022/05/12 08:44:23;;;;;;;4.40;3.70;;;;;;;25.04;33.17;101220.06;5080162;28;20440;-73
2022/05/12 08:46:57;;;;;;;3.90;3.27;;;;;;;23.24;35.93;101233.28;5080226;28;20443;-74
2022/05/12 08:49:31;;;;;;;3.40;3.20;;;;;;;22.42;37.68;101234.19;5080467;28;20181;-73
2022/05/12 08:52:31;;;;;;;3.50;3.20;;;;;;;25.10;33.86;101230.47;5080591;28;20421;-73
2022/05/12 08:55:29;;;;;;;4.67;3.37;;;;;;;24.79;33.47;101221.09;5079996;28;20552;-73
2022/05/12 08:58:00;;;;;;;4.23;3.27;;;;;;;25.20;32.39;101220.25;5047468;28;20532;-75
2022/05/12 09:00:30;;;;;;;4.90;3.30;;;;;;;24.52;33.26;101223.97;5079144;28;20415;-74
2022/05/12 09:03:17;;;;;;;3.40;3.10;;;;;;;25.63;31.92;101220.16;5079068;28;20415;-74
2022/05/12 09:06:03;;;;;;;5.53;3.20;;;;;;;24.60;33.01;101231.66;5079909;28;20407;-74
2022/05/12 09:08:35;;;;;;;6.53;3.43;;;;;;;25.47;31.28;101222.66;5079919;28;20712;-77
2022/05/12 09:11:06;;;;;;;5.00;3.10;;;;;;;26.65;30.75;101216.16;5079617;28;20422;-75
2022/05/12 09:13:50;;;;;;;3.60;2.80;;;;;;;24.41;32.51;101223.53;5079605;28;20422;-72
2022/05/12 09:16:19;;;;;;;3.97;2.90;;;;;;;24.84;32.05;101228.91;5079604;28;20554;-73
2022/05/12 09:18:46;;;;;;;3.80;2.93;;;;;;;25.57;30.88;101231.09;5079051;28;20720;-70
2022/05/12 09:21:21;;;;;;;5.40;2.93;;;;;;;26.18;30.93;101230.06;5079684;28;20419;-72
2022/05/12 09:23:46;;;;;;;3.87;3.10;;;;;;;25.47;30.85;101222.66;5078401;28;20415;-74
2022/05/12 09:26:36;;;;;;;4.23;3.30;;;;;;;26.19;29.38;101226.44;5079463;28;20724;-72
2022/05/12 09:29:17;;;;;;;3.87;2.90;;;;;;;24.75;30.53;101235.50;5079436;28;20188;-71
2022/05/12 09:31:47;;;;;;;3.43;2.90;;;;;;;24.98;31.06;101239.84;5079241;28;20502;-73
2022/05/12 09:34:29;;;;;;;5.03;2.77;;;;;;;24.71;31.77;101228.56;5078614;28;20415;-74
2022/05/12 09:36:55;;;;;;;7.10;3.67;;;;;;;24.07;32.34;101242.66;5079347;28;20426;-74
2022/05/12 09:39:33;;;;;;;3.23;2.80;;;;;;;23.98;32.64;101242.09;5080317;28;20407;-72
2022/05/12 09:42:01;;;;;;;3.67;2.97;;;;;;;25.63;30.50;101238.84;5079214;28;20490;-72
2022/05/12 09:44:29;;;;;;;5.27;3.30;;;;;;;24.71;32.13;101239.22;5078996;28;20704;-72
2022/05/12 09:47:10;;;;;;;3.83;3.03;;;;;;;22.62;34.57;101249.47;5078704;28;20493;-73
2022/05/12 09:49:38;;;;;;;3.60;2.93;;;;;;;21.78;34.78;101243.16;5078834;28;20457;-76
2022/05/12 09:52:35;;;;;;;3.87;2.93;;;;;;;21.75;35.67;101245.06;5078662;28;20435;-77
2022/05/12 09:55:24;;;;;;;5.17;3.20;;;;;;;22.71;34.25;101261.59;5078634;28;20455;-72
2022/05/12 09:57:49;;;;;;;3.63;3.00;;;;;;;23.30;33.57;101251.66;5078808;28;20411;-73
2022/05/12 10:00:30;;;;;;;3.77;2.97;;;;;;;22.70;35.05;101247.47;5078601;28;20399;-74
2022/05/12 10:09:10;;;;;;;4.20;3.03;;;;;;;25.58;30.27;101248.88;5078143;28;20518;-75
2022/05/12 10:11:50;;;;;;;4.50;3.20;;;;;;;23.08;33.14;101270.13;5078666;28;20407;-76
2022/05/12 10:14:53;;;;;;;5.03;3.20;;;;;;;21.53;34.93;101266.91;5078481;28;20675;-76
2022/05/12 10:17:49;;;;;;;4.60;3.20;;;;;;;21.52;35.93;101271.28;5078719;28;20407;-74
2022/05/12 10:20:19;;;;;;;3.67;3.00;;;;;;;23.29;32.98;101260.59;5065722;28;20501;-75
2022/05/12 10:22:56;;;;;;;6.27;3.10;;;;;;;23.49;32.42;101266.06;5075398;28;20822;-76
2022/05/12 10:25:56;;;;;;;3.20;2.70;;;;;;;24.10;31.90;101251.41;5058373;28;20543;-74
2022/05/12 10:28:41;;;;;;;3.40;2.93;;;;;;;24.17;31.72;101258.22;5075465;28;20476;-72
2022/05/12 10:31:09;;;;;;;6.43;3.60;;;;;;;24.21;31.33;101256.31;5074093;28;20489;-72
2022/05/12 10:34:05;;;;;;;4.90;2.73;;;;;;;22.39;34.53;101263.50;5071282;28;20430;-76
2022/05/12 10:36:38;;;;;;;4.57;2.80;;;;;;;21.48;35.46;101269.63;5069883;28;20450;-74
2022/05/12 10:39:27;;;;;;;3.60;2.90;;;;;;;20.62;36.37;101274.44;5067641;28;20443;-73
2022/05/12 10:42:11;;;;;;;4.67;3.20;;;;;;;20.75;36.12;101275.06;5077039;28;20423;-74
2022/05/12 10:44:46;;;;;;;11.57;3.70;;;;;;;20.92;36.13;101277.28;5076037;28;20431;-73
2022/05/12 10:47:34;;;;;;;5.63;3.53;;;;;;;22.19;35.02;101266.75;5059646;28;20470;-74
2022/05/12 10:49:59;;;;;;;8.77;3.40;;;;;;;22.91;33.34;101266.28;5069690;28;20431;-75
2022/05/12 10:52:30;;;;;;;3.57;3.27;;;;;;;23.69;32.41;101269.78;5075933;28;20434;-72
2022/05/12 10:55:02;;;;;;;4.73;3.20;;;;;;;22.78;33.10;101271.09;5072876;28;20302;-72
2022/05/12 10:57:41;;;;;;;3.70;3.00;;;;;;;23.26;32.35;101269.53;5076348;28;20426;-72
2022/05/12 11:00:37;;;;;;;6.70;2.80;;;;;;;23.94;31.35;101264.44;5071290;28;20431;-72
2022/05/12 11:03:24;;;;;;;4.43;2.90;;;;;;;22.56;34.22;101268.28;5072716;28;20446;-73
2022/05/12 11:05:58;;;;;;;3.53;2.80;;;;;;;23.24;32.68;101265.19;5057139;28;20806;-75
2022/05/12 11:08:34;;;;;;;6.70;3.40;;;;;;;22.06;34.49;101268.06;5073871;28;20435;-74
2022/05/12 11:11:03;;;;;;;3.83;2.90;;;;;;;22.12;34.37;101260.78;5057817;28;20809;-75
2022/05/12 11:13:34;;;;;;;4.57;3.67;;;;;;;22.52;34.06;101270.16;5069445;28;20840;-75
2022/05/12 11:16:07;;;;;;;4.83;3.30;;;;;;;22.76;33.17;101269.41;5064727;28;20475;-73
2022/05/12 11:18:38;;;;;;;3.80;3.00;;;;;;;22.26;34.57;101272.72;5065742;28;20452;-74
2022/05/12 11:21:17;;;;;;;4.83;3.07;;;;;;;22.09;34.67;101274.13;5076509;28;20423;-72
2022/05/12 11:24:11;;;;;;;5.40;3.00;;;;;;;21.44;36.47;101272.41;5077458;28;20435;-73
2022/05/12 11:26:43;;;;;;;5.30;2.97;;;;;;;21.28;35.96;101271.97;5077404;28;20415;-74
2022/05/12 11:32:24;;;;;;;5.47;3.20;;;;;;;20.38;37.47;101276.78;5083418;28;20437;-74
2022/05/12 11:34:51;;;;;;;4.67;3.30;;;;;;;20.68;37.29;101282.25;5068093;28;20479;-71
2022/05/12 11:37:37;;;;;;;6.03;3.40;;;;;;;19.95;38.73;101288.28;5078728;28;20458;-75
2022/05/12 11:40:10;;;;;;;5.23;3.10;;;;;;;21.01;37.15;101279.72;5078174;28;20661;-71
2022/05/12 11:45:50;;;;;;;3.90;3.20;;;;;;;22.84;34.13;101275.34;5057352;28;20498;-73
2022/05/12 11:48:36;;;;;;;5.17;3.50;;;;;;;21.64;36.11;101274.56;5061681;28;20843;-75
2022/05/12 11:51:20;;;;;;;4.80;3.63;;;;;;;22.08;35.56;101268.84;5074245;28;20462;-74
2022/05/12 11:53:53;;;;;;;4.90;3.00;;;;;;;22.08;35.79;101263.56;5075677;28;20557;-74
2022/05/12 11:56:39;;;;;;;4.50;3.10;;;;;;;21.37;36.44;101264.63;5075908;28;20477;-74
2022/05/12 11:59:42;;;;;;;4.90;3.30;;;;;;;20.77;36.75;101270.59;5076690;28;20429;-74